Detall de PIREP

Printer-friendly versionPDF version

[2012/11/18 11:31:00]
Flight IATA:CT0001
Pilot Number:012
Company ICAO:CAT
Aircraft Type:DC3/A
PAX:19
Aircraft Registration:PAX
Departing Airport: LERS
Destination Airport: LEMH
Alternate Airport:LEPA
Online: VATSIM
Route:BCN H70 SARGO
Flight Level:F080
No Slew and time accel
No pause
Crash detect
Detect pilot in Cockpit between each 30 and 45 minutes
11:31 Zero fuel Weight: 19131 Lbs, Fuel Weight: 1404 Lbs
11:31 VATSIM:LERS 181100Z 01006KT 9999 RA BKN040 15/11 Q1009
11:31 VATSIM:LEMH 181100Z 01008KT 9999 FEW013 FEW020TCU 19/16 Q1007
11:31 VOICE CATALONIAN
11:31 Parking Brakes off
11:34 Take-off
11:34 Take off Weight: 20521 Lbs
11:34 Wind: 097º @ 006 Knots Heading: 070º
11:34 POS N41º 08´ 50´´ E001º 10´ 02´´
11:34 Gear Up: 102 Knots
11:41 TOC
11:41 Fuel Weight: 1288 Lb
11:49 Wind:335º@007 Knots Heading: 063º Ground Speed: 168 Knots Altitude 9849 ft
12:04 Wind:010º@007 Knots Heading: 117º Ground Speed: 174 Knots Altitude 9809 ft
12:19 Wind:010º@007 Knots Heading: 117º Ground Speed: 171 Knots Altitude 8799 ft
12:34 Wind:004º@005 Knots Heading: 117º Ground Speed: 171 Knots Altitude 8871 ft
12:43 TOD
12:43 Fuel Weight: 598 Lb
12:49 Wind:029º@007 Knots Heading: 227º Ground Speed: 182 Knots Altitude 5744 ft
13:01 Flaps:1 at 101 Knots
13:03 Flaps:2 at 104 Knots
13:03 Gear Down: 103 Knots
13:04 Wind:038º@007 Knots Heading: 012º Ground Speed: 082 Knots Altitude 1305 ft
13:04 Flaps:3 at 88 Knots
13:04 Flaps:4 at 78 Knots
13:06 TouchDown:Rate -173 ft/min Speed: 61 Knots
13:06 Flaps:0 at 39 Knots
13:06 VATSIM:LEMH 181230Z 03005KT 360V060 9999 FEW018 FEW025TCU 20/15 Q1006
13:06 Land
13:06 Wind:041º@007 Knots
13:06 Heading: 008º
13:06 Flight Duration: 01:32
13:06 Landing Weight: 19528 Lbs
13:06 POS N39º 51´ 29´´ E004º 13´ 04´´
13:08 Parking brakes on
13:08 Block to Block Duration: 01:37
13:08 Final Fuel: 392 Lbls
13:08 Spent Fuel: 1011 Lbls
13:08 Flight Length: 243 NM
13:08 TOD Land Length: 57 NM

Exportar CSV

Powered by Drupal - Modified by Danger4k